Greeneville Municipal (3B1)
Greeneville, ME
Field Elevation: 1401
Lat: 45°27.80N  Long: 69°33.10W
CTAF/Unicom Freq: 122.8000
   
     For Weather-by-Phone, call (207) 695-2581
Weather Advisories
2020-07-11   14:52 Z
Altimeter 29.84" Hg
Wind 150° @ 13 KT
Gusts 16 KT
Visibility 2 1/2 SM
Ceiling BKN002 OVC006
Temperature 21° C (70° F)
Dewpoint 21° C (70° F)
Relative Humidity 100%
Density Altitude 2,400 feet
Condensation Altitude --
Wind and Runways
Indicated Runway = 14
Headwind = 13 kt
Crosswind = 2 kt
History
 
 
 
More Info
NOAA Forecast
 
 
About Us
Belfort Instrument
 
 
FAA Disclaimer: The data displayed is for advisory purposes only and is not to be used for flight planning or operations. For official data, please call (207) 695-2581 to hear the current automated AWOS voice message.
  METAR 3B1 111452Z AUTO 15013G16KT 2 1/2 SM BKN002 OVC006 21/21 A2984